Time;durP1;ratioP1;P1;durP2;ratioP2;P2;SDS_P1;SDS_P2;PMS_P1;PMS_P2;Temp;Humidity;BMP_temperature;BMP_pressure;BME280_temperature;BME280_humidity;BME280_pressure;Samples;Min_cycle;Max_cycle;Signal;HPM_P1;HPM_P2
2021/12/27 00:00:43;;;;;;;9.97;9.07;;;9.50;99.90;;;;;;10504364;22;20550;-83
2021/12/27 00:05:45;;;;;;;10.10;9.30;;;9.50;99.90;;;;;;10499906;28;20337;-82
2021/12/27 00:10:47;;;;;;;10.03;9.20;;;9.50;99.90;;;;;;10485473;28;20232;-83
2021/12/27 00:15:51;;;;;;;9.73;8.90;;;9.50;99.90;;;;;;10488145;28;20295;-82
2021/12/27 00:20:53;;;;;;;8.97;8.27;;;9.50;99.90;;;;;;10498630;28;20216;-83
2021/12/27 00:25:55;;;;;;;10.07;9.20;;;9.40;99.90;;;;;;10472282;28;20672;-83
2021/12/27 00:30:58;;;;;;;11.47;10.13;;;9.40;99.90;;;;;;10494178;28;20245;-83
2021/12/27 00:36:01;;;;;;;11.03;10.03;;;9.30;99.90;;;;;;10500089;28;20228;-82
2021/12/27 00:41:03;;;;;;;10.77;9.80;;;9.30;99.90;;;;;;10497659;28;20220;-83
2021/12/27 00:46:06;;;;;;;11.33;10.27;;;9.40;99.90;;;;;;10494566;28;20279;-83
2021/12/27 00:51:10;;;;;;;11.63;10.57;;;9.40;99.90;;;;;;10466244;28;20235;-83
2021/12/27 00:56:12;;;;;;;12.30;11.20;;;9.40;99.90;;;;;;10470720;28;20204;-83
2021/12/27 01:01:15;;;;;;;12.00;10.83;;;9.40;99.90;;;;;;10480578;28;20235;-83
2021/12/27 01:06:17;;;;;;;12.40;11.30;;;9.40;99.90;;;;;;10502159;28;20205;-82
2021/12/27 01:11:25;;;;;;;12.13;10.87;;;9.50;99.90;;;;;;10485922;28;20223;-83
2021/12/27 01:16:29;;;;;;;11.73;10.63;;;9.50;99.90;;;;;;10503496;28;20614;-83
2021/12/27 01:21:31;;;;;;;11.20;10.17;;;9.50;99.90;;;;;;10493447;28;20224;-82
2021/12/27 01:26:33;;;;;;;10.27;9.37;;;9.40;99.90;;;;;;10484982;28;20582;-82
2021/12/27 01:31:37;;;;;;;11.40;10.30;;;9.40;99.90;;;;;;10485567;28;20786;-82
2021/12/27 01:36:39;;;;;;;11.37;10.37;;;9.40;99.90;;;;;;10502029;28;20208;-83
2021/12/27 01:41:41;;;;;;;11.83;10.77;;;9.30;99.90;;;;;;10478972;28;20270;-83
2021/12/27 01:46:45;;;;;;;12.07;10.90;;;9.30;99.90;;;;;;10486425;28;20299;-84
2021/12/27 01:51:47;;;;;;;11.80;10.70;;;9.30;99.90;;;;;;10503729;28;20235;-84
2021/12/27 01:56:52;;;;;;;11.03;10.00;;;9.30;99.90;;;;;;10479155;28;20729;-83
2021/12/27 02:01:55;;;;;;;11.23;10.23;;;9.20;99.90;;;;;;10469396;28;20225;-83
2021/12/27 02:06:57;;;;;;;12.17;11.17;;;9.20;99.90;;;;;;10464423;28;20247;-83
2021/12/27 02:12:00;;;;;;;9.93;9.03;;;9.20;99.90;;;;;;10516597;28;20221;-82
2021/12/27 02:17:03;;;;;;;10.03;9.13;;;9.20;99.90;;;;;;10503112;28;20274;-83
2021/12/27 02:22:07;;;;;;;10.13;9.30;;;9.10;99.90;;;;;;10500236;28;20221;-84
2021/12/27 02:27:13;;;;;;;9.00;8.20;;;9.20;99.90;;;;;;10492497;28;20220;-83
2021/12/27 02:32:15;;;;;;;8.53;7.80;;;9.20;99.90;;;;;;10484154;28;20217;-82
2021/12/27 02:37:18;;;;;;;7.93;7.10;;;9.10;99.90;;;;;;10469534;28;20207;-82
2021/12/27 02:42:21;;;;;;;7.80;7.10;;;9.10;99.90;;;;;;10499079;28;20224;-84
2021/12/27 02:47:23;;;;;;;6.90;6.30;;;9.20;99.90;;;;;;10475196;28;20533;-83
2021/12/27 02:52:26;;;;;;;7.03;6.47;;;9.20;99.90;;;;;;10481800;28;20315;-84
2021/12/27 02:57:28;;;;;;;7.23;6.53;;;9.10;99.90;;;;;;10480326;28;20228;-83
2021/12/27 03:02:30;;;;;;;7.27;6.67;;;9.10;99.90;;;;;;10498875;28;20228;-82
2021/12/27 03:07:34;;;;;;;7.03;6.43;;;9.10;99.90;;;;;;10498450;28;20216;-84
2021/12/27 03:12:38;;;;;;;5.43;5.07;;;9.10;99.90;;;;;;10498350;28;20250;-83
2021/12/27 03:17:42;;;;;;;6.50;6.00;;;9.10;99.90;;;;;;10482312;28;20246;-83
2021/12/27 03:22:46;;;;;;;5.53;5.13;;;9.20;99.90;;;;;;10499299;28;20346;-83
2021/12/27 03:27:49;;;;;;;5.20;4.80;;;9.20;99.90;;;;;;10480069;28;20220;-82
2021/12/27 03:32:51;;;;;;;5.93;5.43;;;9.30;99.90;;;;;;10480640;28;20315;-84
2021/12/27 03:37:57;;;;;;;5.60;5.20;;;9.30;99.90;;;;;;10497551;28;20193;-83
2021/12/27 03:43:00;;;;;;;5.13;4.73;;;9.40;99.90;;;;;;10497126;28;20311;-83
2021/12/27 03:48:03;;;;;;;4.90;4.50;;;9.40;99.90;;;;;;10480581;28;20691;-84
2021/12/27 03:53:07;;;;;;;4.70;4.40;;;9.40;99.90;;;;;;10481758;28;20232;-82
2021/12/27 03:58:21;;;;;;;5.20;4.70;;;9.30;99.90;;;;;;10477610;28;20219;-84
2021/12/27 04:03:24;;;;;;;3.50;3.30;;;9.40;99.90;;;;;;10474853;28;20326;-82
2021/12/27 04:08:27;;;;;;;3.47;3.27;;;9.40;99.90;;;;;;10485813;28;20209;-83
2021/12/27 04:13:29;;;;;;;4.07;3.77;;;9.40;99.90;;;;;;10485384;28;20323;-84
2021/12/27 04:18:31;;;;;;;6.77;6.17;;;9.40;99.90;;;;;;10484420;28;20196;-81
2021/12/27 04:23:35;;;;;;;4.40;4.10;;;9.40;99.90;;;;;;10481852;28;20239;-82
2021/12/27 04:28:37;;;;;;;5.77;5.27;;;9.50;99.90;;;;;;10486705;28;20564;-83
2021/12/27 04:33:39;;;;;;;4.57;3.43;;;9.50;99.90;;;;;;10514102;28;20244;-83
2021/12/27 04:38:43;;;;;;;3.10;2.90;;;9.50;99.90;;;;;;10498868;28;20197;-83
2021/12/27 04:43:46;;;;;;;3.10;2.90;;;9.50;99.90;;;;;;10497871;28;20653;-83
2021/12/27 04:48:51;;;;;;;2.97;2.87;;;9.50;99.90;;;;;;10479937;28;20235;-83
2021/12/27 04:53:55;;;;;;;2.50;2.40;;;9.50;99.90;;;;;;10496603;28;20232;-83
2021/12/27 04:58:57;;;;;;;3.10;3.00;;;9.50;99.90;;;;;;10496866;28;20219;-83
2021/12/27 05:03:59;;;;;;;2.93;2.83;;;9.60;99.90;;;;;;10476313;28;20239;-83
2021/12/27 05:09:03;;;;;;;2.90;2.70;;;9.60;99.90;;;;;;10470345;28;20320;-83
2021/12/27 05:14:05;;;;;;;2.63;2.53;;;9.60;99.90;;;;;;10490216;28;20244;-83
2021/12/27 05:19:07;;;;;;;3.30;3.10;;;9.50;99.90;;;;;;10479367;28;20227;-82
2021/12/27 05:24:12;;;;;;;2.27;2.07;;;9.60;99.90;;;;;;10469927;28;20247;-84
2021/12/27 05:29:14;;;;;;;4.50;4.20;;;9.60;99.90;;;;;;10494343;28;20224;-82
2021/12/27 05:34:16;;;;;;;4.30;4.00;;;9.60;99.90;;;;;;10496531;28;20596;-83
2021/12/27 05:39:21;;;;;;;3.13;2.93;;;9.60;99.90;;;;;;10483475;28;20184;-83
2021/12/27 05:44:24;;;;;;;3.10;2.90;;;9.60;99.90;;;;;;10477256;28;20224;-81
2021/12/27 05:49:26;;;;;;;3.47;3.27;;;9.60;99.90;;;;;;10450501;28;20223;-83
2021/12/27 05:54:29;;;;;;;2.93;2.57;;;9.70;99.90;;;;;;10473777;28;20243;-83
2021/12/27 05:59:31;;;;;;;2.80;2.70;;;9.70;99.90;;;;;;10441951;28;20225;-83
2021/12/27 06:04:34;;;;;;;2.53;2.43;;;9.70;99.90;;;;;;10486015;28;20224;-82
2021/12/27 06:09:37;;;;;;;3.47;3.27;;;9.70;99.90;;;;;;10485829;28;20216;-82
2021/12/27 06:14:39;;;;;;;5.73;5.23;;;9.60;99.90;;;;;;10506954;28;20228;-81
2021/12/27 06:19:41;;;;;;;4.43;4.03;;;9.60;99.90;;;;;;10489841;28;20197;-81
2021/12/27 06:24:45;;;;;;;2.90;2.80;;;9.50;99.90;;;;;;10493119;28;20227;-81
2021/12/27 06:29:47;;;;;;;3.67;3.37;;;9.50;99.90;;;;;;10470440;28;20278;-82
2021/12/27 06:34:49;;;;;;;3.20;2.87;;;9.40;99.90;;;;;;10474641;28;20295;-82
2021/12/27 06:39:53;;;;;;;3.07;2.87;;;9.40;99.90;;;;;;10496834;28;20197;-82
2021/12/27 06:44:55;;;;;;;3.70;3.50;;;9.20;99.90;;;;;;10490098;28;20240;-82
2021/12/27 06:49:57;;;;;;;2.50;2.40;;;9.10;99.90;;;;;;10491818;28;20312;-82
2021/12/27 06:55:01;;;;;;;5.23;4.73;;;8.90;99.90;;;;;;10491238;28;20224;-82
2021/12/27 07:00:06;;;;;;;3.60;3.40;;;8.70;99.90;;;;;;10494864;28;20197;-82
2021/12/27 07:05:08;;;;;;;4.00;3.70;;;8.60;99.90;;;;;;10457188;28;20193;-83
2021/12/27 07:10:14;;;;;;;4.17;3.80;;;8.50;99.90;;;;;;10482514;28;20252;-81
2021/12/27 07:15:16;;;;;;;4.60;4.30;;;8.30;99.90;;;;;;10496197;28;20287;-81
2021/12/27 07:20:19;;;;;;;4.73;4.33;;;8.20;99.90;;;;;;10488004;28;20280;-82
2021/12/27 07:25:22;;;;;;;5.60;5.10;;;8.10;99.90;;;;;;10466328;28;20205;-81
2021/12/27 07:30:24;;;;;;;5.43;4.97;;;8.00;99.90;;;;;;10445894;28;20609;-81
2021/12/27 07:35:27;;;;;;;6.30;5.70;;;8.00;99.90;;;;;;10446607;28;20201;-81
2021/12/27 07:40:31;;;;;;;6.50;5.90;;;7.90;99.90;;;;;;10484584;28;20223;-82
2021/12/27 07:45:33;;;;;;;6.53;5.93;;;8.00;99.90;;;;;;10466725;28;20201;-82
2021/12/27 07:50:36;;;;;;;5.43;4.97;;;8.10;99.90;;;;;;10457545;28;20223;-82
2021/12/27 07:55:40;;;;;;;5.63;5.13;;;8.10;99.90;;;;;;10464843;28;20189;-80
2021/12/27 08:00:42;;;;;;;5.60;5.20;;;8.20;99.90;;;;;;10468573;28;20225;-81
2021/12/27 08:05:45;;;;;;;5.90;5.27;;;8.20;99.90;;;;;;10465760;28;20205;-81
2021/12/27 08:10:48;;;;;;;7.40;6.43;;;8.20;99.90;;;;;;10463498;28;20232;-81
2021/12/27 08:15:50;;;;;;;5.30;4.80;;;8.20;99.90;;;;;;10501695;28;20239;-82
2021/12/27 08:20:52;;;;;;;6.50;6.10;;;8.20;99.90;;;;;;10493858;28;20300;-82
2021/12/27 08:25:56;;;;;;;5.73;5.33;;;8.20;99.90;;;;;;10480242;28;20209;-82
2021/12/27 08:30:58;;;;;;;6.23;5.63;;;8.20;99.90;;;;;;10484079;28;20239;-82
2021/12/27 08:36:00;;;;;;;6.00;5.60;;;8.20;99.90;;;;;;10501690;28;20690;-81
2021/12/27 08:41:04;;;;;;;7.53;5.50;;;8.20;99.90;;;;;;10500741;28;20217;-83
2021/12/27 08:46:06;;;;;;;5.57;5.17;;;8.30;99.90;;;;;;10486477;28;20224;-81
2021/12/27 08:51:08;;;;;;;6.13;5.60;;;8.30;99.90;;;;;;10503970;28;20267;-81
2021/12/27 08:56:12;;;;;;;5.90;5.40;;;8.50;99.90;;;;;;10495646;28;20211;-82
2021/12/27 09:01:17;;;;;;;7.00;6.50;;;8.60;99.90;;;;;;10505445;28;20222;-82
2021/12/27 09:06:20;;;;;;;5.83;5.33;;;8.70;99.90;;;;;;10488464;28;20205;-82
2021/12/27 09:11:23;;;;;;;4.70;4.40;;;8.80;99.90;;;;;;10510742;28;20640;-82
2021/12/27 09:16:25;;;;;;;5.83;5.37;;;8.90;99.90;;;;;;10490707;28;20232;-82
2021/12/27 09:21:27;;;;;;;6.13;5.63;;;9.00;99.90;;;;;;10507259;28;20220;-81
2021/12/27 09:26:31;;;;;;;5.70;5.30;;;9.10;99.90;;;;;;10508241;28;20224;-81
2021/12/27 09:31:34;;;;;;;6.37;5.20;;;9.20;99.90;;;;;;10488628;28;20524;-80
2021/12/27 09:36:36;;;;;;;4.80;4.50;;;9.20;99.90;;;;;;10508464;28;20213;-80
2021/12/27 09:41:39;;;;;;;5.43;5.03;;;9.30;99.90;;;;;;10503500;28;20231;-81
2021/12/27 09:46:42;;;;;;;6.10;5.60;;;9.30;99.90;;;;;;10485536;28;20343;-80
2021/12/27 09:51:45;;;;;;;6.43;5.93;;;9.40;99.90;;;;;;10502298;28;20221;-82
2021/12/27 09:56:51;;;;;;;6.70;6.10;;;9.40;99.90;;;;;;10496375;28;20196;-82
2021/12/27 10:01:54;;;;;;;6.83;6.17;;;9.50;99.90;;;;;;10480548;28;20249;-80
2021/12/27 10:06:56;;;;;;;5.40;5.00;;;9.60;99.90;;;;;;10494797;28;20209;-80
2021/12/27 10:12:06;;;;;;;5.53;5.13;;;9.60;99.90;;;;;;10506931;28;20760;-80
2021/12/27 10:17:12;;;;;;;7.03;4.90;;;9.50;99.90;;;;;;10499506;28;20292;-81
2021/12/27 10:22:14;;;;;;;5.80;5.37;;;9.50;99.90;;;;;;10502534;28;20767;-80
2021/12/27 10:27:19;;;;;;;5.73;5.23;;;9.50;99.90;;;;;;10486841;28;20200;-82
2021/12/27 10:32:21;;;;;;;4.70;4.40;;;9.50;99.90;;;;;;10501799;28;20260;-81
2021/12/27 10:37:25;;;;;;;6.70;6.10;;;9.50;99.90;;;;;;10499933;28;20239;-81
2021/12/27 10:42:30;;;;;;;5.97;5.47;;;9.60;99.90;;;;;;10501947;28;20302;-80
2021/12/27 10:47:38;;;;;;;6.20;5.70;;;9.60;99.90;;;;;;10501289;28;20658;-81
2021/12/27 10:53:03;;;;;;;5.43;5.03;;;9.60;99.90;;;;;;10500840;28;20228;-81
2021/12/27 10:58:19;;;;;;;6.10;5.70;;;9.60;99.90;;;;;;10482264;28;20228;-81
2021/12/27 11:03:30;;;;;;;5.23;4.87;;;9.60;99.90;;;;;;10493544;28;20235;-81
2021/12/27 11:08:34;;;;;;;6.57;6.03;;;9.70;99.90;;;;;;10489688;28;20200;-81
2021/12/27 11:13:41;;;;;;;5.60;5.20;;;9.60;99.90;;;;;;10497977;28;20228;-80
2021/12/27 11:18:43;;;;;;;6.30;5.77;;;9.70;99.90;;;;;;10493140;28;20584;-80
2021/12/27 11:23:48;;;;;;;6.30;5.80;;;9.70;99.90;;;;;;10482631;28;20315;-81
2021/12/27 11:28:52;;;;;;;6.20;5.60;;;9.70;99.90;;;;;;10457978;28;20235;-81
2021/12/27 11:33:56;;;;;;;8.23;6.13;;;9.80;99.90;;;;;;10445514;28;20247;-81
2021/12/27 11:39:00;;;;;;;5.67;5.27;;;9.80;99.90;;;;;;10459785;28;20275;-82
2021/12/27 11:44:05;;;;;;;6.33;5.83;;;9.90;99.90;;;;;;10448421;28;20597;-83
2021/12/27 11:49:07;;;;;;;6.33;5.73;;;10.00;99.90;;;;;;10462748;28;20235;-84
2021/12/27 11:54:29;;;;;;;5.90;5.40;;;10.10;99.90;;;;;;10488722;28;20216;-84
2021/12/27 11:59:42;;;;;;;6.23;5.63;;;10.20;99.90;;;;;;10482979;28;20197;-83
2021/12/27 12:04:46;;;;;;;6.00;5.40;;;10.30;99.90;;;;;;10498267;22;20220;-79
2021/12/27 12:09:51;;;;;;;7.27;6.67;;;10.40;99.90;;;;;;10491743;28;20208;-79
2021/12/27 12:14:56;;;;;;;6.20;5.70;;;10.40;99.90;;;;;;10487527;28;20221;-79
2021/12/27 12:19:58;;;;;;;6.60;6.00;;;10.50;99.90;;;;;;10474205;28;20204;-79
2021/12/27 12:25:12;;;;;;;6.87;6.27;;;10.50;99.90;;;;;;10478186;28;20577;-78
2021/12/27 12:30:15;;;;;;;7.43;6.47;;;10.60;99.90;;;;;;10482261;28;20320;-78
2021/12/27 12:35:35;;;;;;;7.87;7.27;;;10.60;99.90;;;;;;10499789;28;20683;-79
2021/12/27 12:40:37;;;;;;;6.90;6.40;;;10.70;99.90;;;;;;10505354;28;20201;-79
2021/12/27 12:45:41;;;;;;;7.20;6.60;;;10.70;99.90;;;;;;10502142;28;20201;-79
2021/12/27 12:50:43;;;;;;;7.00;6.50;;;10.80;99.90;;;;;;10503974;28;20671;-79
2021/12/27 12:55:45;;;;;;;8.90;7.77;;;10.80;99.90;;;;;;10497817;28;20208;-79
2021/12/27 13:00:48;;;;;;;7.33;6.67;;;10.80;99.90;;;;;;10504471;28;20707;-79
2021/12/27 13:05:57;;;;;;;7.43;6.83;;;10.80;99.90;;;;;;10505485;28;20264;-79
2021/12/27 13:11:02;;;;;;;5.90;5.40;;;10.80;99.90;;;;;;10484761;28;20304;-79
2021/12/27 13:16:06;;;;;;;6.13;5.67;;;10.90;99.90;;;;;;10503952;28;20203;-79
2021/12/27 13:21:11;;;;;;;5.80;5.40;;;10.90;99.90;;;;;;10461315;28;20687;-79
2021/12/27 13:26:15;;;;;;;4.63;4.30;;;11.00;99.90;;;;;;10488287;28;20578;-79
2021/12/27 13:31:20;;;;;;;5.50;5.10;;;11.00;99.90;;;;;;10483910;28;20243;-79
2021/12/27 13:36:24;;;;;;;4.83;4.43;;;11.00;99.90;;;;;;10487220;28;20668;-79
2021/12/27 13:41:29;;;;;;;4.13;3.83;;;11.00;99.90;;;;;;10492228;28;20285;-79
2021/12/27 13:46:34;;;;;;;4.53;4.13;;;11.00;99.90;;;;;;10475235;28;20201;-78
2021/12/27 13:51:37;;;;;;;3.90;3.60;;;11.00;99.90;;;;;;10467105;28;20224;-78
2021/12/27 13:56:40;;;;;;;3.97;3.60;;;11.00;99.90;;;;;;10485142;28;20209;-78
2021/12/27 14:01:57;;;;;;;4.97;4.63;;;10.90;99.90;;;;;;10482904;28;20647;-78
2021/12/27 14:07:01;;;;;;;3.80;3.60;;;10.90;99.90;;;;;;10467483;28;20227;-78
2021/12/27 14:12:05;;;;;;;3.77;3.53;;;10.90;99.90;;;;;;10489700;28;20216;-78
2021/12/27 14:17:11;;;;;;;9.40;4.40;;;10.90;99.90;;;;;;10482718;28;20234;-78
2021/12/27 14:22:15;;;;;;;4.70;4.40;;;10.80;99.90;;;;;;10470104;28;20224;-78
2021/12/27 14:27:25;;;;;;;4.33;3.93;;;10.80;99.90;;;;;;10459850;28;20774;-78
2021/12/27 14:32:28;;;;;;;4.20;3.90;;;10.80;99.90;;;;;;10495797;28;20569;-79
2021/12/27 14:37:30;;;;;;;4.07;3.77;;;10.80;99.90;;;;;;10503992;28;20648;-78
2021/12/27 14:42:33;;;;;;;3.53;3.10;;;10.80;99.90;;;;;;10503098;28;20248;-78
2021/12/27 14:47:36;;;;;;;4.67;4.27;;;10.70;99.90;;;;;;10498149;28;20202;-78
2021/12/27 14:52:38;;;;;;;3.67;3.47;;;10.70;99.90;;;;;;10493529;28;20699;-78
2021/12/27 14:57:41;;;;;;;3.63;3.43;;;10.70;99.90;;;;;;10492587;28;20258;-78
2021/12/27 15:02:44;;;;;;;4.27;3.97;;;10.70;99.90;;;;;;10499113;28;20224;-78
2021/12/27 15:07:47;;;;;;;5.50;5.00;;;10.70;99.90;;;;;;10498992;28;20208;-78
2021/12/27 15:12:49;;;;;;;5.03;4.63;;;10.60;99.90;;;;;;10492600;28;20231;-77
2021/12/27 15:17:54;;;;;;;4.50;4.07;;;10.60;99.90;;;;;;10492817;28;20657;-78
2021/12/27 15:22:56;;;;;;;4.57;4.27;;;10.50;99.90;;;;;;10496332;28;20220;-78
2021/12/27 15:27:58;;;;;;;4.97;4.60;;;10.50;99.90;;;;;;10495576;28;20201;-79
2021/12/27 15:33:02;;;;;;;4.23;3.93;;;10.50;99.90;;;;;;10480497;28;20211;-79
2021/12/27 15:38:04;;;;;;;4.20;3.90;;;10.50;99.90;;;;;;10498048;28;20207;-78
2021/12/27 15:43:06;;;;;;;4.57;3.63;;;10.50;99.90;;;;;;10494912;28;20216;-79
2021/12/27 15:48:10;;;;;;;4.20;3.90;;;10.50;99.90;;;;;;10447394;28;20193;-79
2021/12/27 15:53:12;;;;;;;4.53;4.13;;;10.50;99.90;;;;;;10460425;28;20591;-78
2021/12/27 15:58:14;;;;;;;4.77;4.33;;;10.40;99.90;;;;;;10472625;28;20193;-78
2021/12/27 16:03:17;;;;;;;4.20;3.90;;;10.40;99.90;;;;;;10478323;28;20238;-78
2021/12/27 16:08:20;;;;;;;6.10;5.67;;;10.30;99.90;;;;;;10449004;28;20201;-78
2021/12/27 16:13:22;;;;;;;5.63;5.23;;;10.30;99.90;;;;;;10463929;28;20213;-78
2021/12/27 16:18:25;;;;;;;5.80;4.73;;;10.30;99.90;;;;;;10469255;28;20198;-78
2021/12/27 16:23:28;;;;;;;5.33;4.93;;;10.40;99.90;;;;;;10474803;28;20286;-79
2021/12/27 16:28:30;;;;;;;5.90;5.40;;;10.40;99.90;;;;;;10487981;28;20201;-78
2021/12/27 16:33:34;;;;;;;4.37;4.07;;;10.40;99.90;;;;;;10495744;28;20213;-78
2021/12/27 16:38:37;;;;;;;6.27;5.77;;;10.40;99.90;;;;;;10495627;28;20667;-79
2021/12/27 16:43:39;;;;;;;6.33;5.83;;;10.40;99.90;;;;;;10504939;28;20224;-79
2021/12/27 16:48:42;;;;;;;6.17;5.57;;;10.50;99.90;;;;;;10508512;28;20283;-78
2021/12/27 16:53:44;;;;;;;7.33;6.70;;;10.40;99.90;;;;;;10496666;28;20217;-78
2021/12/27 16:58:46;;;;;;;7.87;7.20;;;10.40;99.90;;;;;;10478534;28;20429;-79
2021/12/27 17:03:52;;;;;;;7.60;7.00;;;10.40;99.90;;;;;;10479835;28;20909;-79
2021/12/27 17:08:54;;;;;;;7.97;7.27;;;10.30;99.90;;;;;;10478516;28;20285;-78
2021/12/27 17:13:56;;;;;;;8.73;8.03;;;10.30;99.90;;;;;;10494185;28;20287;-78
2021/12/27 17:18:59;;;;;;;8.70;7.90;;;10.20;99.90;;;;;;10486627;28;20203;-78
2021/12/27 17:24:01;;;;;;;8.80;8.10;;;10.10;99.90;;;;;;10500377;28;20692;-77
2021/12/27 17:29:05;;;;;;;7.40;6.80;;;10.00;99.90;;;;;;10492822;28;20197;-77
2021/12/27 17:34:09;;;;;;;8.60;7.90;;;10.00;99.90;;;;;;10485554;28;20714;-78
2021/12/27 17:39:11;;;;;;;8.30;7.67;;;10.00;99.90;;;;;;10494909;28;20204;-78
2021/12/27 17:44:14;;;;;;;8.93;8.13;;;10.00;99.90;;;;;;10499436;28;20229;-78
2021/12/27 17:49:17;;;;;;;8.10;7.50;;;10.00;99.90;;;;;;10492094;28;20204;-79
2021/12/27 17:54:21;;;;;;;6.57;6.07;;;10.00;99.90;;;;;;10505605;28;20269;-79
2021/12/27 17:59:23;;;;;;;8.00;7.30;;;10.00;99.90;;;;;;10482578;28;20271;-79
2021/12/27 18:04:28;;;;;;;5.60;5.20;;;10.00;99.90;;;;;;10552269;22;20319;-81
2021/12/27 18:09:30;;;;;;;5.67;5.27;;;10.00;99.90;;;;;;10551298;28;20231;-82
2021/12/27 18:14:32;;;;;;;6.20;5.73;;;10.00;99.90;;;;;;10579412;27;20226;-80
2021/12/27 18:19:36;;;;;;;5.93;5.53;;;10.00;99.90;;;;;;10601667;27;20237;-80
2021/12/27 18:24:38;;;;;;;6.43;6.00;;;9.90;99.90;;;;;;10583722;27;20233;-81
2021/12/27 18:29:40;;;;;;;6.20;5.67;;;9.80;99.90;;;;;;10606967;27;20197;-81
2021/12/27 18:34:44;;;;;;;4.73;4.43;;;9.80;99.90;;;;;;10622136;27;20304;-80
2021/12/27 18:39:46;;;;;;;6.13;5.80;;;9.70;99.90;;;;;;10611095;27;20647;-81
2021/12/27 18:44:48;;;;;;;4.77;4.37;;;9.60;99.90;;;;;;10576666;27;20228;-81
2021/12/27 18:49:54;;;;;;;7.83;7.33;;;9.60;99.90;;;;;;10590798;27;20195;-81
2021/12/27 18:54:56;;;;;;;8.67;8.17;;;9.60;99.90;;;;;;10588170;27;20581;-81
2021/12/27 18:59:58;;;;;;;8.17;7.67;;;9.50;99.90;;;;;;10608133;27;20187;-82
2021/12/27 19:05:03;;;;;;;7.83;7.43;;;9.50;99.90;;;;;;10606211;27;20231;-84
2021/12/27 19:10:06;;;;;;;6.73;6.23;;;9.40;99.90;;;;;;10590095;27;20238;-83
2021/12/27 19:15:09;;;;;;;6.80;6.30;;;9.40;99.90;;;;;;10591147;27;20218;-81
2021/12/27 19:20:14;;;;;;;6.87;6.47;;;9.30;99.90;;;;;;10599042;28;20624;-82
2021/12/27 19:25:16;;;;;;;7.67;7.17;;;9.30;99.90;;;;;;10573254;28;20325;-83
2021/12/27 19:30:19;;;;;;;6.40;6.10;;;9.30;99.90;;;;;;10578240;28;20195;-82
2021/12/27 19:35:23;;;;;;;5.97;5.73;;;9.30;99.90;;;;;;10604402;27;20239;-82
2021/12/27 19:40:27;;;;;;;4.07;3.87;;;9.40;99.90;;;;;;10591097;27;20211;-81
2021/12/27 19:45:29;;;;;;;5.37;5.07;;;9.40;99.90;;;;;;10604146;27;20219;-82
2021/12/27 19:50:34;;;;;;;3.27;3.17;;;9.30;99.90;;;;;;10585098;27;20229;-81
2021/12/27 19:55:38;;;;;;;4.13;3.93;;;9.40;99.90;;;;;;10611879;27;20219;-81
2021/12/27 20:00:40;;;;;;;4.77;4.57;;;9.40;99.90;;;;;;10604268;27;20221;-81
2021/12/27 20:05:44;;;;;;;3.87;3.67;;;9.40;99.90;;;;;;10606475;27;20253;-81
2021/12/27 20:10:46;;;;;;;2.80;2.60;;;9.40;99.90;;;;;;10586690;27;20225;-83
2021/12/27 20:15:49;;;;;;;3.43;3.23;;;9.50;99.90;;;;;;10591751;27;20218;-82
2021/12/27 20:20:52;;;;;;;2.80;2.70;;;9.50;99.90;;;;;;10589155;27;20247;-83
2021/12/27 20:25:55;;;;;;;2.73;2.17;;;9.50;99.90;;;;;;10600235;27;20199;-83
2021/12/27 20:30:58;;;;;;;3.30;3.07;;;9.40;99.90;;;;;;10623326;27;20202;-83
2021/12/27 20:36:01;;;;;;;2.90;2.73;;;9.40;99.90;;;;;;10588176;27;20203;-83
2021/12/27 20:41:04;;;;;;;2.40;2.20;;;9.40;99.90;;;;;;10589232;27;20215;-83
2021/12/27 20:46:06;;;;;;;2.93;2.50;;;9.50;99.90;;;;;;10565212;27;20225;-82
2021/12/27 20:51:09;;;;;;;3.20;2.90;;;9.50;99.90;;;;;;10587835;27;20597;-83
2021/12/27 20:56:12;;;;;;;2.67;2.57;;;9.50;99.90;;;;;;10580523;27;20208;-82
2021/12/27 21:01:14;;;;;;;2.47;2.37;;;9.50;99.90;;;;;;10573575;27;20219;-83
2021/12/27 21:06:19;;;;;;;3.23;2.30;;;9.60;99.90;;;;;;10634726;27;20581;-82
2021/12/27 21:11:24;;;;;;;3.23;2.93;;;9.60;99.90;;;;;;10593610;27;20230;-82
2021/12/27 21:16:27;;;;;;;3.20;2.93;;;9.60;99.90;;;;;;10589005;27;20203;-83
2021/12/27 21:21:31;;;;;;;3.83;3.50;;;9.60;99.90;;;;;;10590969;27;20598;-83
2021/12/27 21:26:33;;;;;;;3.63;3.20;;;9.60;99.90;;;;;;10591899;27;20248;-81
2021/12/27 21:31:36;;;;;;;3.43;3.23;;;9.70;99.90;;;;;;10621258;27;20228;-80
2021/12/27 21:36:40;;;;;;;3.43;3.23;;;9.70;99.90;;;;;;10590808;27;20685;-80
2021/12/27 21:41:42;;;;;;;3.27;3.07;;;9.70;99.90;;;;;;10586380;27;20720;-80
2021/12/27 21:46:45;;;;;;;3.80;3.40;;;9.70;99.90;;;;;;10583864;27;20286;-82
2021/12/27 21:51:48;;;;;;;3.40;3.20;;;9.80;99.90;;;;;;10586319;27;20559;-82
2021/12/27 21:56:51;;;;;;;3.87;3.20;;;9.80;99.90;;;;;;10594387;27;20218;-84
2021/12/27 22:01:53;;;;;;;3.20;3.00;;;9.80;99.90;;;;;;10624665;27;20226;-82
2021/12/27 22:06:58;;;;;;;3.10;2.90;;;9.90;99.90;;;;;;10558304;27;20199;-82
2021/12/27 22:12:00;;;;;;;3.20;2.60;;;9.90;99.90;;;;;;10559160;27;20245;-84
2021/12/27 22:17:02;;;;;;;2.37;2.17;;;9.90;99.90;;;;;;10586214;27;20219;-82
2021/12/27 22:22:06;;;;;;;2.30;2.20;;;9.90;99.90;;;;;;10588305;27;20226;-82
2021/12/27 22:27:08;;;;;;;2.30;2.20;;;9.90;99.90;;;;;;10576181;27;20270;-82
2021/12/27 22:32:10;;;;;;;2.70;2.60;;;9.90;99.90;;;;;;10577576;27;20222;-83
2021/12/27 22:37:14;;;;;;;2.93;2.73;;;9.90;99.90;;;;;;10605427;27;20217;-82
2021/12/27 22:42:18;;;;;;;2.10;2.00;;;10.00;99.90;;;;;;10579585;27;20313;-84
2021/12/27 22:47:20;;;;;;;2.10;2.00;;;10.00;99.90;;;;;;10628468;27;20226;-82
2021/12/27 22:52:23;;;;;;;2.27;2.17;;;10.10;99.90;;;;;;10578186;27;20218;-83
2021/12/27 22:57:25;;;;;;;2.07;1.97;;;10.10;99.90;;;;;;10587637;27;20282;-82
2021/12/27 23:02:27;;;;;;;2.40;2.20;;;10.10;99.90;;;;;;10586389;27;20612;-83
2021/12/27 23:07:31;;;;;;;3.23;1.87;;;10.10;99.90;;;;;;10599687;27;20666;-82
2021/12/27 23:12:33;;;;;;;2.87;2.20;;;10.00;99.90;;;;;;10591359;27;20217;-82
2021/12/27 23:17:35;;;;;;;2.63;2.43;;;10.00;99.90;;;;;;10595361;27;20557;-81
2021/12/27 23:22:39;;;;;;;2.33;2.10;;;10.00;99.90;;;;;;10587577;28;20737;-82
2021/12/27 23:27:43;;;;;;;2.50;2.30;;;9.90;99.90;;;;;;10566066;28;20207;-84
2021/12/27 23:32:55;;;;;;;2.17;2.07;;;9.90;99.90;;;;;;10570421;28;20296;-83
2021/12/27 23:37:58;;;;;;;4.70;2.30;;;9.80;99.90;;;;;;10585812;28;20202;-84
2021/12/27 23:43:00;;;;;;;3.90;2.10;;;9.80;99.90;;;;;;10594184;28;20219;-83
2021/12/27 23:48:02;;;;;;;3.70;2.30;;;9.70;99.90;;;;;;10575017;28;20263;-82
2021/12/27 23:53:07;;;;;;;5.33;2.30;;;9.60;99.90;;;;;;10571409;28;20218;-82
2021/12/27 23:58:17;;;;;;;6.67;2.33;;;9.60;99.90;;;;;;10572848;28;20254;-83
